sensor_id;sensor_type;location;lat;lon;timestamp;temperature;humidity
69464;DHT22;56665;41.106;16.688;2023-03-01T00:02:47;13.00;86.90
69464;DHT22;56665;41.106;16.688;2023-03-01T00:05:51;12.99;86.75
69464;DHT22;56665;41.106;16.688;2023-03-01T00:08:56;12.99;86.84
69464;DHT22;56665;41.106;16.688;2023-03-01T00:12:03;12.99;86.82
69464;DHT22;56665;41.106;16.688;2023-03-01T00:15:07;12.98;87.22
69464;DHT22;56665;41.106;16.688;2023-03-01T00:18:12;12.98;87.39
69464;DHT22;56665;41.106;16.688;2023-03-01T00:21:16;13.02;87.68
69464;DHT22;56665;41.106;16.688;2023-03-01T00:24:20;13.05;87.95
69464;DHT22;56665;41.106;16.688;2023-03-01T00:27:24;13.09;88.00
69464;DHT22;56665;41.106;16.688;2023-03-01T00:30:28;13.09;87.84
69464;DHT22;56665;41.106;16.688;2023-03-01T00:33:33;13.09;87.77
69464;DHT22;56665;41.106;16.688;2023-03-01T00:36:38;13.09;87.66
69464;DHT22;56665;41.106;16.688;2023-03-01T00:39:42;13.05;87.04
69464;DHT22;56665;41.106;16.688;2023-03-01T00:42:46;13.03;87.10
69464;DHT22;56665;41.106;16.688;2023-03-01T00:45:50;13.02;87.35
69464;DHT22;56665;41.106;16.688;2023-03-01T00:48:55;13.00;87.52
69464;DHT22;56665;41.106;16.688;2023-03-01T00:51:59;12.86;88.23
69464;DHT22;56665;41.106;16.688;2023-03-01T00:55:04;12.76;89.21
69464;DHT22;56665;41.106;16.688;2023-03-01T00:58:08;12.71;89.96
69464;DHT22;56665;41.106;16.688;2023-03-01T01:01:15;12.67;90.42
69464;DHT22;56665;41.106;16.688;2023-03-01T01:04:21;12.68;90.53
69464;DHT22;56665;41.106;16.688;2023-03-01T01:07:26;12.69;90.65
69464;DHT22;56665;41.106;16.688;2023-03-01T01:10:35;12.73;90.83
69464;DHT22;56665;41.106;16.688;2023-03-01T01:13:40;12.75;90.42
69464;DHT22;56665;41.106;16.688;2023-03-01T01:16:44;12.67;90.67
69464;DHT22;56665;41.106;16.688;2023-03-01T01:19:49;12.59;90.85
69464;DHT22;56665;41.106;16.688;2023-03-01T01:22:53;12.58;91.13
69464;DHT22;56665;41.106;16.688;2023-03-01T01:25:56;12.59;91.26
69464;DHT22;56665;41.106;16.688;2023-03-01T01:29:02;12.69;91.45
69464;DHT22;56665;41.106;16.688;2023-03-01T01:32:07;12.72;91.23
69464;DHT22;56665;41.106;16.688;2023-03-01T01:35:10;12.78;91.00
69464;DHT22;56665;41.106;16.688;2023-03-01T01:38:15;12.80;90.97
69464;DHT22;56665;41.106;16.688;2023-03-01T01:41:20;12.88;90.97
69464;DHT22;56665;41.106;16.688;2023-03-01T01:44:26;12.91;90.76
69464;DHT22;56665;41.106;16.688;2023-03-01T01:47:30;12.92;90.64
69464;DHT22;56665;41.106;16.688;2023-03-01T01:50:36;12.99;90.56
69464;DHT22;56665;41.106;16.688;2023-03-01T01:53:44;13.03;90.55
69464;DHT22;56665;41.106;16.688;2023-03-01T01:56:54;13.06;90.31
69464;DHT22;56665;41.106;16.688;2023-03-01T02:00:03;13.06;90.36
69464;DHT22;56665;41.106;16.688;2023-03-01T02:03:29;13.03;90.64
69464;DHT22;56665;41.106;16.688;2023-03-01T02:06:49;12.96;90.69
69464;DHT22;56665;41.106;16.688;2023-03-01T02:09:55;12.96;90.95
69464;DHT22;56665;41.106;16.688;2023-03-01T02:13:00;12.95;91.18
69464;DHT22;56665;41.106;16.688;2023-03-01T02:16:08;12.93;91.36
69464;DHT22;56665;41.106;16.688;2023-03-01T02:22:48;12.96;91.39
69464;DHT22;56665;41.106;16.688;2023-03-01T02:26:12;12.98;91.47
69464;DHT22;56665;41.106;16.688;2023-03-01T02:29:20;12.95;91.53
69464;DHT22;56665;41.106;16.688;2023-03-01T02:32:24;12.96;91.61
69464;DHT22;56665;41.106;16.688;2023-03-01T02:35:37;12.98;91.49
69464;DHT22;56665;41.106;16.688;2023-03-01T02:38:42;12.96;91.29
69464;DHT22;56665;41.106;16.688;2023-03-01T02:41:50;12.92;91.29
69464;DHT22;56665;41.106;16.688;2023-03-01T02:44:55;12.93;91.17
69464;DHT22;56665;41.106;16.688;2023-03-01T02:47:59;12.82;91.08
69464;DHT22;56665;41.106;16.688;2023-03-01T02:54:53;12.86;91.38
69464;DHT22;56665;41.106;16.688;2023-03-01T02:58:02;12.82;91.34
69464;DHT22;56665;41.106;16.688;2023-03-01T03:01:06;12.82;91.41
69464;DHT22;56665;41.106;16.688;2023-03-01T03:04:15;12.80;91.52
69464;DHT22;56665;41.106;16.688;2023-03-01T03:07:24;12.79;91.60
69464;DHT22;56665;41.106;16.688;2023-03-01T03:10:35;12.82;91.57
69464;DHT22;56665;41.106;16.688;2023-03-01T03:13:40;12.79;91.44
69464;DHT22;56665;41.106;16.688;2023-03-01T03:16:51;12.82;91.41
69464;DHT22;56665;41.106;16.688;2023-03-01T03:19:56;12.80;91.46
69464;DHT22;56665;41.106;16.688;2023-03-01T03:23:00;12.82;91.47
69464;DHT22;56665;41.106;16.688;2023-03-01T03:26:05;12.80;91.53
69464;DHT22;56665;41.106;16.688;2023-03-01T03:29:08;12.78;91.64
69464;DHT22;56665;41.106;16.688;2023-03-01T03:32:13;12.80;91.84
69464;DHT22;56665;41.106;16.688;2023-03-01T03:35:18;12.85;91.96
69464;DHT22;56665;41.106;16.688;2023-03-01T03:38:24;12.79;92.00
69464;DHT22;56665;41.106;16.688;2023-03-01T03:41:34;12.76;92.23
69464;DHT22;56665;41.106;16.688;2023-03-01T03:44:38;12.68;92.73
69464;DHT22;56665;41.106;16.688;2023-03-01T03:47:43;12.62;93.21
69464;DHT22;56665;41.106;16.688;2023-03-01T03:50:57;12.55;93.43
69464;DHT22;56665;41.106;16.688;2023-03-01T03:54:02;12.49;93.61
69464;DHT22;56665;41.106;16.688;2023-03-01T03:57:09;12.47;93.79
69464;DHT22;56665;41.106;16.688;2023-03-01T04:00:13;12.44;93.86
69464;DHT22;56665;41.106;16.688;2023-03-01T04:03:20;12.42;93.94
69464;DHT22;56665;41.106;16.688;2023-03-01T04:06:24;12.36;93.94
69464;DHT22;56665;41.106;16.688;2023-03-01T04:09:32;12.36;93.98
69464;DHT22;56665;41.106;16.688;2023-03-01T04:12:36;12.31;94.16
69464;DHT22;56665;41.106;16.688;2023-03-01T04:15:40;12.34;94.25
69464;DHT22;56665;41.106;16.688;2023-03-01T04:18:47;12.44;94.34
69464;DHT22;56665;41.106;16.688;2023-03-01T04:21:53;12.49;94.29
69464;DHT22;56665;41.106;16.688;2023-03-01T04:24:57;12.51;94.11
69464;DHT22;56665;41.106;16.688;2023-03-01T04:28:01;12.59;93.96
69464;DHT22;56665;41.106;16.688;2023-03-01T04:31:12;12.64;93.69
69464;DHT22;56665;41.106;16.688;2023-03-01T04:34:16;12.58;93.25
69464;DHT22;56665;41.106;16.688;2023-03-01T04:37:20;12.59;93.16
69464;DHT22;56665;41.106;16.688;2023-03-01T04:40:25;12.58;93.13
69464;DHT22;56665;41.106;16.688;2023-03-01T04:43:30;12.62;92.94
69464;DHT22;56665;41.106;16.688;2023-03-01T04:46:37;12.61;92.59
69464;DHT22;56665;41.106;16.688;2023-03-01T04:49:41;12.64;92.64
69464;DHT22;56665;41.106;16.688;2023-03-01T04:52:44;12.69;92.85
69464;DHT22;56665;41.106;16.688;2023-03-01T04:55:49;12.73;92.75
69464;DHT22;56665;41.106;16.688;2023-03-01T04:58:54;12.71;92.30
69464;DHT22;56665;41.106;16.688;2023-03-01T05:01:59;12.75;92.19
69464;DHT22;56665;41.106;16.688;2023-03-01T05:05:04;12.72;92.01
69464;DHT22;56665;41.106;16.688;2023-03-01T05:08:09;12.71;91.94
69464;DHT22;56665;41.106;16.688;2023-03-01T05:11:21;12.69;92.03
69464;DHT22;56665;41.106;16.688;2023-03-01T05:14:25;12.68;91.95
69464;DHT22;56665;41.106;16.688;2023-03-01T05:17:30;12.68;91.88
69464;DHT22;56665;41.106;16.688;2023-03-01T05:20:35;12.69;92.02
69464;DHT22;56665;41.106;16.688;2023-03-01T05:23:39;12.68;92.30
69464;DHT22;56665;41.106;16.688;2023-03-01T05:26:44;12.69;92.48
69464;DHT22;56665;41.106;16.688;2023-03-01T05:29:51;12.73;92.62
69464;DHT22;56665;41.106;16.688;2023-03-01T05:32:55;12.73;92.63
69464;DHT22;56665;41.106;16.688;2023-03-01T05:36:00;12.76;92.62
69464;DHT22;56665;41.106;16.688;2023-03-01T05:39:04;12.79;92.18
69464;DHT22;56665;41.106;16.688;2023-03-01T05:42:11;12.80;92.02
69464;DHT22;56665;41.106;16.688;2023-03-01T05:45:17;12.80;91.90
69464;DHT22;56665;41.106;16.688;2023-03-01T05:48:23;12.79;91.72
69464;DHT22;56665;41.106;16.688;2023-03-01T05:51:28;12.82;91.42
69464;DHT22;56665;41.106;16.688;2023-03-01T05:54:34;12.82;91.34
69464;DHT22;56665;41.106;16.688;2023-03-01T05:57:39;12.78;90.90
69464;DHT22;56665;41.106;16.688;2023-03-01T06:00:44;12.79;90.85
69464;DHT22;56665;41.106;16.688;2023-03-01T06:03:48;12.79;90.17
69464;DHT22;56665;41.106;16.688;2023-03-01T06:06:53;12.78;89.95
69464;DHT22;56665;41.106;16.688;2023-03-01T06:09:57;12.75;89.91
69464;DHT22;56665;41.106;16.688;2023-03-01T06:13:02;12.73;90.10
69464;DHT22;56665;41.106;16.688;2023-03-01T06:16:07;12.76;89.83
69464;DHT22;56665;41.106;16.688;2023-03-01T06:19:13;12.82;89.17
69464;DHT22;56665;41.106;16.688;2023-03-01T06:22:17;12.83;88.40
69464;DHT22;56665;41.106;16.688;2023-03-01T06:25:22;12.88;87.42
69464;DHT22;56665;41.106;16.688;2023-03-01T06:28:26;12.96;86.94
69464;DHT22;56665;41.106;16.688;2023-03-01T06:31:31;13.03;86.21
69464;DHT22;56665;41.106;16.688;2023-03-01T06:34:37;13.12;85.95
69464;DHT22;56665;41.106;16.688;2023-03-01T06:37:41;13.22;85.37
69464;DHT22;56665;41.106;16.688;2023-03-01T06:40:54;13.38;84.71
69464;DHT22;56665;41.106;16.688;2023-03-01T06:43:58;13.54;84.24
69464;DHT22;56665;41.106;16.688;2023-03-01T06:47:02;13.79;82.40
69464;DHT22;56665;41.106;16.688;2023-03-01T06:50:08;13.92;81.08
69464;DHT22;56665;41.106;16.688;2023-03-01T06:53:12;14.09;80.08
69464;DHT22;56665;41.106;16.688;2023-03-01T06:56:16;14.43;79.53
69464;DHT22;56665;41.106;16.688;2023-03-01T06:59:20;14.46;78.01
69464;DHT22;56665;41.106;16.688;2023-03-01T07:02:25;14.56;77.43
69464;DHT22;56665;41.106;16.688;2023-03-01T07:05:29;14.60;75.94
69464;DHT22;56665;41.106;16.688;2023-03-01T07:08:33;14.67;75.41
69464;DHT22;56665;41.106;16.688;2023-03-01T07:11:38;14.63;75.83
69464;DHT22;56665;41.106;16.688;2023-03-01T07:14:43;14.71;75.30
69464;DHT22;56665;41.106;16.688;2023-03-01T07:17:47;14.76;74.85
69464;DHT22;56665;41.106;16.688;2023-03-01T07:20:53;14.63;75.50
69464;DHT22;56665;41.106;16.688;2023-03-01T07:23:57;14.55;75.09
69464;DHT22;56665;41.106;16.688;2023-03-01T07:27:01;14.44;75.41
69464;DHT22;56665;41.106;16.688;2023-03-01T07:30:05;14.53;75.47
69464;DHT22;56665;41.106;16.688;2023-03-01T07:33:09;14.60;74.86
69464;DHT22;56665;41.106;16.688;2023-03-01T07:36:13;14.77;74.47
69464;DHT22;56665;41.106;16.688;2023-03-01T07:39:18;15.18;76.24
69464;DHT22;56665;41.106;16.688;2023-03-01T07:42:22;15.47;73.55
69464;DHT22;56665;41.106;16.688;2023-03-01T07:45:26;15.78;74.43
69464;DHT22;56665;41.106;16.688;2023-03-01T07:48:30;15.94;70.79
69464;DHT22;56665;41.106;16.688;2023-03-01T07:51:35;16.17;70.02
69464;DHT22;56665;41.106;16.688;2023-03-01T07:54:39;16.34;68.89
69464;DHT22;56665;41.106;16.688;2023-03-01T07:57:45;16.06;69.47
69464;DHT22;56665;41.106;16.688;2023-03-01T08:00:49;15.93;70.68
69464;DHT22;56665;41.106;16.688;2023-03-01T08:03:53;15.94;71.51
69464;DHT22;56665;41.106;16.688;2023-03-01T08:06:58;16.21;71.43
69464;DHT22;56665;41.106;16.688;2023-03-01T08:10:02;16.31;70.26
69464;DHT22;56665;41.106;16.688;2023-03-01T08:13:06;16.41;70.46
69464;DHT22;56665;41.106;16.688;2023-03-01T08:16:13;16.48;69.67
69464;DHT22;56665;41.106;16.688;2023-03-01T08:19:16;16.55;67.80
69464;DHT22;56665;41.106;16.688;2023-03-01T08:22:20;16.39;67.54
69464;DHT22;56665;41.106;16.688;2023-03-01T08:25:24;16.45;67.37
69464;DHT22;56665;41.106;16.688;2023-03-01T08:28:28;16.70;67.76
69464;DHT22;56665;41.106;16.688;2023-03-01T08:31:35;16.96;67.74
69464;DHT22;56665;41.106;16.688;2023-03-01T08:34:39;17.45;65.33
69464;DHT22;56665;41.106;16.688;2023-03-01T08:37:43;17.71;64.19
69464;DHT22;56665;41.106;16.688;2023-03-01T08:40:47;17.99;64.38
69464;DHT22;56665;41.106;16.688;2023-03-01T08:43:52;18.37;63.24
69464;DHT22;56665;41.106;16.688;2023-03-01T08:47:01;18.43;63.39
69464;DHT22;56665;41.106;16.688;2023-03-01T08:50:07;18.05;61.84
69464;DHT22;56665;41.106;16.688;2023-03-01T08:53:11;17.48;64.40
69464;DHT22;56665;41.106;16.688;2023-03-01T08:56:16;17.62;63.51
69464;DHT22;56665;41.106;16.688;2023-03-01T08:59:19;17.76;62.94
69464;DHT22;56665;41.106;16.688;2023-03-01T09:02:23;17.62;62.19
69464;DHT22;56665;41.106;16.688;2023-03-01T09:05:31;17.79;62.63
69464;DHT22;56665;41.106;16.688;2023-03-01T09:08:40;18.05;61.88
69464;DHT22;56665;41.106;16.688;2023-03-01T09:11:46;18.65;59.11
69464;DHT22;56665;41.106;16.688;2023-03-01T09:14:50;19.15;58.76
69464;DHT22;56665;41.106;16.688;2023-03-01T09:17:54;18.81;59.87
69464;DHT22;56665;41.106;16.688;2023-03-01T09:21:03;18.85;60.74
69464;DHT22;56665;41.106;16.688;2023-03-01T09:24:13;18.58;61.17
69464;DHT22;56665;41.106;16.688;2023-03-01T09:27:17;17.89;62.47
69464;DHT22;56665;41.106;16.688;2023-03-01T09:30:22;17.90;62.99
69464;DHT22;56665;41.106;16.688;2023-03-01T09:33:31;18.03;62.71
69464;DHT22;56665;41.106;16.688;2023-03-01T09:36:35;18.17;62.88
69464;DHT22;56665;41.106;16.688;2023-03-01T09:39:39;18.92;61.12
69464;DHT22;56665;41.106;16.688;2023-03-01T09:42:53;19.53;60.18
69464;DHT22;56665;41.106;16.688;2023-03-01T09:46:04;20.07;58.56
69464;DHT22;56665;41.106;16.688;2023-03-01T09:49:35;20.14;57.52
69464;DHT22;56665;41.106;16.688;2023-03-01T09:52:46;19.74;58.99
69464;DHT22;56665;41.106;16.688;2023-03-01T09:56:03;20.07;58.57
69464;DHT22;56665;41.106;16.688;2023-03-01T10:02:26;20.15;58.30
69464;DHT22;56665;41.106;16.688;2023-03-01T10:05:40;20.36;57.41
69464;DHT22;56665;41.106;16.688;2023-03-01T10:08:57;20.88;55.50
69464;DHT22;56665;41.106;16.688;2023-03-01T10:12:09;21.00;54.72
69464;DHT22;56665;41.106;16.688;2023-03-01T10:15:28;21.58;53.93
69464;DHT22;56665;41.106;16.688;2023-03-01T10:18:37;21.34;54.03
69464;DHT22;56665;41.106;16.688;2023-03-01T10:21:45;21.61;54.14
69464;DHT22;56665;41.106;16.688;2023-03-01T10:24:50;21.17;54.89
69464;DHT22;56665;41.106;16.688;2023-03-01T10:28:20;20.38;56.35
69464;DHT22;56665;41.106;16.688;2023-03-01T10:31:47;19.87;58.08
69464;DHT22;56665;41.106;16.688;2023-03-01T10:34:52;19.26;59.63
69464;DHT22;56665;41.106;16.688;2023-03-01T10:38:10;19.23;59.92
69464;DHT22;56665;41.106;16.688;2023-03-01T10:41:15;19.35;59.44
69464;DHT22;56665;41.106;16.688;2023-03-01T10:44:41;19.32;59.21
69464;DHT22;56665;41.106;16.688;2023-03-01T10:47:45;19.37;60.93
69464;DHT22;56665;41.106;16.688;2023-03-01T10:51:03;19.49;63.21
69464;DHT22;56665;41.106;16.688;2023-03-01T10:54:28;18.88;65.04
69464;DHT22;56665;41.106;16.688;2023-03-01T10:57:37;18.28;67.06
69464;DHT22;56665;41.106;16.688;2023-03-01T11:00:50;18.18;66.79
69464;DHT22;56665;41.106;16.688;2023-03-01T11:04:11;17.97;68.25
69464;DHT22;56665;41.106;16.688;2023-03-01T11:07:17;17.61;69.77
69464;DHT22;56665;41.106;16.688;2023-03-01T11:10:23;17.55;70.15
69464;DHT22;56665;41.106;16.688;2023-03-01T11:13:30;17.83;69.60
69464;DHT22;56665;41.106;16.688;2023-03-01T11:16:37;17.67;69.98
69464;DHT22;56665;41.106;16.688;2023-03-01T11:19:42;16.83;72.31
69464;DHT22;56665;41.106;16.688;2023-03-01T11:22:53;16.62;73.39
69464;DHT22;56665;41.106;16.688;2023-03-01T11:26:05;17.21;70.89
69464;DHT22;56665;41.106;16.688;2023-03-01T11:29:38;17.18;70.83
69464;DHT22;56665;41.106;16.688;2023-03-01T11:32:45;17.18;70.82
69464;DHT22;56665;41.106;16.688;2023-03-01T11:35:57;17.47;70.05
69464;DHT22;56665;41.106;16.688;2023-03-01T11:39:23;17.74;68.92
69464;DHT22;56665;41.106;16.688;2023-03-01T11:42:41;17.00;71.43
69464;DHT22;56665;41.106;16.688;2023-03-01T11:53:14;17.67;70.66
69464;DHT22;56665;41.106;16.688;2023-03-01T11:56:40;17.68;69.90
69464;DHT22;56665;41.106;16.688;2023-03-01T12:06:43;17.18;71.46
69464;DHT22;56665;41.106;16.688;2023-03-01T12:23:56;17.20;70.32
69464;DHT22;56665;41.106;16.688;2023-03-01T12:37:42;16.08;76.40
69464;DHT22;56665;41.106;16.688;2023-03-01T12:44:21;16.90;72.00
69464;DHT22;56665;41.106;16.688;2023-03-01T12:51:11;16.44;74.46
69464;DHT22;56665;41.106;16.688;2023-03-01T12:54:31;16.15;75.26
69464;DHT22;56665;41.106;16.688;2023-03-01T12:57:48;16.32;74.80
69464;DHT22;56665;41.106;16.688;2023-03-01T13:08:20;17.18;71.61
69464;DHT22;56665;41.106;16.688;2023-03-01T13:11:26;17.20;71.93
69464;DHT22;56665;41.106;16.688;2023-03-01T13:14:36;17.08;72.16
69464;DHT22;56665;41.106;16.688;2023-03-01T13:17:43;16.69;73.62
69464;DHT22;56665;41.106;16.688;2023-03-01T13:20:50;16.49;74.16
69464;DHT22;56665;41.106;16.688;2023-03-01T13:23:55;16.41;74.32
69464;DHT22;56665;41.106;16.688;2023-03-01T13:36:48;15.65;75.76
69464;DHT22;56665;41.106;16.688;2023-03-01T13:39:52;15.53;76.36
69464;DHT22;56665;41.106;16.688;2023-03-01T13:42:57;15.53;77.17
69464;DHT22;56665;41.106;16.688;2023-03-01T13:46:22;15.45;76.70
69464;DHT22;56665;41.106;16.688;2023-03-01T13:49:29;15.31;77.05
69464;DHT22;56665;41.106;16.688;2023-03-01T13:56:07;15.29;77.70
69464;DHT22;56665;41.106;16.688;2023-03-01T13:59:18;15.45;77.22
69464;DHT22;56665;41.106;16.688;2023-03-01T14:02:22;15.55;77.37
69464;DHT22;56665;41.106;16.688;2023-03-01T14:05:25;15.55;77.27
69464;DHT22;56665;41.106;16.688;2023-03-01T14:08:30;15.65;76.64
69464;DHT22;56665;41.106;16.688;2023-03-01T14:11:46;15.39;76.81
69464;DHT22;56665;41.106;16.688;2023-03-01T14:18:28;15.18;78.26
69464;DHT22;56665;41.106;16.688;2023-03-01T14:21:32;15.07;78.47
69464;DHT22;56665;41.106;16.688;2023-03-01T14:24:39;15.15;78.51
69464;DHT22;56665;41.106;16.688;2023-03-01T14:27:44;15.12;78.53
69464;DHT22;56665;41.106;16.688;2023-03-01T14:30:50;15.16;78.80
69464;DHT22;56665;41.106;16.688;2023-03-01T14:33:55;15.25;78.61
69464;DHT22;56665;41.106;16.688;2023-03-01T14:37:23;15.35;78.30
69464;DHT22;56665;41.106;16.688;2023-03-01T14:40:31;15.39;78.69
69464;DHT22;56665;41.106;16.688;2023-03-01T14:43:37;15.52;78.77
69464;DHT22;56665;41.106;16.688;2023-03-01T14:46:44;15.60;77.41
69464;DHT22;56665;41.106;16.688;2023-03-01T14:49:54;15.55;76.60
69464;DHT22;56665;41.106;16.688;2023-03-01T14:53:04;15.43;78.07
69464;DHT22;56665;41.106;16.688;2023-03-01T14:56:17;15.43;78.45
69464;DHT22;56665;41.106;16.688;2023-03-01T14:59:22;15.39;78.43
69464;DHT22;56665;41.106;16.688;2023-03-01T15:02:28;15.32;78.28
69464;DHT22;56665;41.106;16.688;2023-03-01T15:05:33;15.26;78.66
69464;DHT22;56665;41.106;16.688;2023-03-01T15:08:42;15.18;78.82
69464;DHT22;56665;41.106;16.688;2023-03-01T15:11:49;15.04;78.61
69464;DHT22;56665;41.106;16.688;2023-03-01T15:14:57;15.01;78.72
69464;DHT22;56665;41.106;16.688;2023-03-01T15:18:16;14.94;79.00
69464;DHT22;56665;41.106;16.688;2023-03-01T15:21:35;14.88;79.43
69464;DHT22;56665;41.106;16.688;2023-03-01T15:24:39;14.91;80.56
69464;DHT22;56665;41.106;16.688;2023-03-01T15:27:48;14.74;83.44
69464;DHT22;56665;41.106;16.688;2023-03-01T15:31:05;14.49;85.73
69464;DHT22;56665;41.106;16.688;2023-03-01T15:37:53;13.70;87.31
69464;DHT22;56665;41.106;16.688;2023-03-01T15:40:58;13.51;87.69
69464;DHT22;56665;41.106;16.688;2023-03-01T15:44:17;13.40;86.79
69464;DHT22;56665;41.106;16.688;2023-03-01T15:47:29;13.47;87.56
69464;DHT22;56665;41.106;16.688;2023-03-01T15:50:35;13.59;86.88
69464;DHT22;56665;41.106;16.688;2023-03-01T15:53:49;13.59;85.87
69464;DHT22;56665;41.106;16.688;2023-03-01T15:56:53;13.53;85.71
69464;DHT22;56665;41.106;16.688;2023-03-01T15:59:57;13.43;85.59
69464;DHT22;56665;41.106;16.688;2023-03-01T16:03:01;13.47;84.43
69464;DHT22;56665;41.106;16.688;2023-03-01T16:06:05;13.43;85.31
69464;DHT22;56665;41.106;16.688;2023-03-01T16:09:09;13.34;85.42
69464;DHT22;56665;41.106;16.688;2023-03-01T16:12:16;13.26;85.77
69464;DHT22;56665;41.106;16.688;2023-03-01T16:15:22;13.13;85.16
69464;DHT22;56665;41.106;16.688;2023-03-01T16:18:27;13.09;84.62
69464;DHT22;56665;41.106;16.688;2023-03-01T16:21:33;12.91;85.48
69464;DHT22;56665;41.106;16.688;2023-03-01T16:24:37;12.82;85.96
69464;DHT22;56665;41.106;16.688;2023-03-01T16:27:48;12.72;85.70
69464;DHT22;56665;41.106;16.688;2023-03-01T16:30:52;12.59;86.04
69464;DHT22;56665;41.106;16.688;2023-03-01T16:33:58;12.61;87.43
69464;DHT22;56665;41.106;16.688;2023-03-01T16:37:02;12.65;87.76
69464;DHT22;56665;41.106;16.688;2023-03-01T16:40:16;12.64;88.01
69464;DHT22;56665;41.106;16.688;2023-03-01T16:43:20;12.54;88.24
69464;DHT22;56665;41.106;16.688;2023-03-01T16:46:26;12.49;88.59
69464;DHT22;56665;41.106;16.688;2023-03-01T16:49:32;12.45;89.16
69464;DHT22;56665;41.106;16.688;2023-03-01T16:52:36;12.34;89.49
69464;DHT22;56665;41.106;16.688;2023-03-01T16:55:41;12.34;89.51
69464;DHT22;56665;41.106;16.688;2023-03-01T16:58:49;12.38;89.59
69464;DHT22;56665;41.106;16.688;2023-03-01T17:01:53;12.45;89.14
69464;DHT22;56665;41.106;16.688;2023-03-01T17:04:57;12.44;89.58
69464;DHT22;56665;41.106;16.688;2023-03-01T17:08:02;12.44;89.81
69464;DHT22;56665;41.106;16.688;2023-03-01T17:11:13;12.45;89.79
69464;DHT22;56665;41.106;16.688;2023-03-01T17:14:17;12.44;89.78
69464;DHT22;56665;41.106;16.688;2023-03-01T17:17:22;12.44;89.59
69464;DHT22;56665;41.106;16.688;2023-03-01T17:20:26;12.45;88.83
69464;DHT22;56665;41.106;16.688;2023-03-01T17:23:32;12.54;89.70
69464;DHT22;56665;41.106;16.688;2023-03-01T17:26:36;12.51;88.71
69464;DHT22;56665;41.106;16.688;2023-03-01T17:29:41;12.48;87.97
69464;DHT22;56665;41.106;16.688;2023-03-01T17:32:45;12.38;88.13
69464;DHT22;56665;41.106;16.688;2023-03-01T17:35:49;12.31;88.06
69464;DHT22;56665;41.106;16.688;2023-03-01T17:38:53;12.30;88.31
69464;DHT22;56665;41.106;16.688;2023-03-01T17:42:00;12.21;87.94
69464;DHT22;56665;41.106;16.688;2023-03-01T17:45:06;12.17;88.63
69464;DHT22;56665;41.106;16.688;2023-03-01T17:48:12;12.12;88.94
69464;DHT22;56665;41.106;16.688;2023-03-01T17:51:15;12.03;88.78
69464;DHT22;56665;41.106;16.688;2023-03-01T17:54:19;11.96;88.90
69464;DHT22;56665;41.106;16.688;2023-03-01T17:57:25;11.91;88.99
69464;DHT22;56665;41.106;16.688;2023-03-01T18:00:28;11.86;88.95
69464;DHT22;56665;41.106;16.688;2023-03-01T18:03:32;11.85;88.92
69464;DHT22;56665;41.106;16.688;2023-03-01T18:06:37;11.79;89.27
69464;DHT22;56665;41.106;16.688;2023-03-01T18:09:44;11.79;89.77
69464;DHT22;56665;41.106;16.688;2023-03-01T18:12:48;11.75;89.39
69464;DHT22;56665;41.106;16.688;2023-03-01T18:15:52;11.66;88.96
69464;DHT22;56665;41.106;16.688;2023-03-01T18:19:03;11.59;88.69
69464;DHT22;56665;41.106;16.688;2023-03-01T18:22:08;11.56;89.29
69464;DHT22;56665;41.106;16.688;2023-03-01T18:25:12;11.56;89.59
69464;DHT22;56665;41.106;16.688;2023-03-01T18:28:18;11.58;89.74
69464;DHT22;56665;41.106;16.688;2023-03-01T18:31:21;11.56;89.45
69464;DHT22;56665;41.106;16.688;2023-03-01T18:34:26;11.62;89.55
69464;DHT22;56665;41.106;16.688;2023-03-01T18:37:31;11.61;89.35
69464;DHT22;56665;41.106;16.688;2023-03-01T18:40:36;11.56;89.15
69464;DHT22;56665;41.106;16.688;2023-03-01T18:43:41;11.52;88.92
69464;DHT22;56665;41.106;16.688;2023-03-01T18:46:45;11.51;89.18
69464;DHT22;56665;41.106;16.688;2023-03-01T18:49:48;11.51;89.03
69464;DHT22;56665;41.106;16.688;2023-03-01T18:52:52;11.48;88.81
69464;DHT22;56665;41.106;16.688;2023-03-01T18:55:59;11.51;88.93
69464;DHT22;56665;41.106;16.688;2023-03-01T18:59:04;11.59;88.57
69464;DHT22;56665;41.106;16.688;2023-03-01T19:02:10;11.59;87.90
69464;DHT22;56665;41.106;16.688;2023-03-01T19:05:15;11.63;87.47
69464;DHT22;56665;41.106;16.688;2023-03-01T19:08:19;11.66;87.43
69464;DHT22;56665;41.106;16.688;2023-03-01T19:11:23;11.65;87.38
69464;DHT22;56665;41.106;16.688;2023-03-01T19:14:30;11.73;87.82
69464;DHT22;56665;41.106;16.688;2023-03-01T19:17:33;11.82;88.03
69464;DHT22;56665;41.106;16.688;2023-03-01T19:20:38;11.93;87.82
69464;DHT22;56665;41.106;16.688;2023-03-01T19:23:42;12.04;87.58
69464;DHT22;56665;41.106;16.688;2023-03-01T19:26:46;12.14;86.82
69464;DHT22;56665;41.106;16.688;2023-03-01T19:29:50;12.27;85.89
69464;DHT22;56665;41.106;16.688;2023-03-01T19:32:53;12.30;85.13
69464;DHT22;56665;41.106;16.688;2023-03-01T19:35:57;12.26;84.78
69464;DHT22;56665;41.106;16.688;2023-03-01T19:39:05;12.23;85.13
69464;DHT22;56665;41.106;16.688;2023-03-01T19:42:09;12.20;85.29
69464;DHT22;56665;41.106;16.688;2023-03-01T19:45:13;12.18;85.27
69464;DHT22;56665;41.106;16.688;2023-03-01T19:48:17;12.16;85.23
69464;DHT22;56665;41.106;16.688;2023-03-01T19:51:21;12.16;86.15
69464;DHT22;56665;41.106;16.688;2023-03-01T19:54:25;12.18;86.34
69464;DHT22;56665;41.106;16.688;2023-03-01T19:57:28;12.23;86.08
69464;DHT22;56665;41.106;16.688;2023-03-01T20:00:33;12.23;85.01
69464;DHT22;56665;41.106;16.688;2023-03-01T20:03:38;12.23;85.07
69464;DHT22;56665;41.106;16.688;2023-03-01T20:06:44;12.20;85.33
69464;DHT22;56665;41.106;16.688;2023-03-01T20:09:49;12.12;85.45
69464;DHT22;56665;41.106;16.688;2023-03-01T20:12:53;12.07;85.99
69464;DHT22;56665;41.106;16.688;2023-03-01T20:15:57;12.03;85.49
69464;DHT22;56665;41.106;16.688;2023-03-01T20:19:01;11.97;85.51
69464;DHT22;56665;41.106;16.688;2023-03-01T20:22:05;12.03;85.60
69464;DHT22;56665;41.106;16.688;2023-03-01T20:25:10;12.00;85.65
69464;DHT22;56665;41.106;16.688;2023-03-01T20:28:15;12.03;86.04
69464;DHT22;56665;41.106;16.688;2023-03-01T20:31:21;12.04;85.80
69464;DHT22;56665;41.106;16.688;2023-03-01T20:34:25;12.04;85.72
69464;DHT22;56665;41.106;16.688;2023-03-01T20:37:29;12.00;86.08
69464;DHT22;56665;41.106;16.688;2023-03-01T20:40:35;11.94;86.45
69464;DHT22;56665;41.106;16.688;2023-03-01T20:43:42;11.94;85.99
69464;DHT22;56665;41.106;16.688;2023-03-01T20:46:46;11.86;85.77